TimeCDT,TemperatureF,Dew PointF,Humidity,Sea Level PressureIn,VisibilityMPH,Wind Direction,Wind SpeedMPH,Gust SpeedMPH,PrecipitationIn,Events,Conditions,WindDirDegrees,DateUTC
12:53 AM,63.0,54.0,72,30.06,10.0,Calm,Calm,-,N/A,,Clear,0,2013-07-01 05:53:00
1:53 AM,60.1,54.0,80,30.06,10.0,NW,3.5,-,N/A,,Clear,310,2013-07-01 06:53:00
2:53 AM,59.0,54.0,83,30.07,10.0,NW,4.6,-,N/A,,Clear,320,2013-07-01 07:53:00
3:53 AM,57.0,53.1,87,30.07,10.0,NW,4.6,-,N/A,,Clear,310,2013-07-01 08:53:00
4:53 AM,57.0,53.1,87,30.08,10.0,WNW,4.6,-,N/A,,Clear,300,2013-07-01 09:53:00
5:53 AM,55.0,52.0,89,30.10,10.0,NW,3.5,-,N/A,,Clear,310,2013-07-01 10:53:00
6:53 AM,55.9,52.0,87,30.11,10.0,NW,4.6,-,N/A,,Clear,310,2013-07-01 11:53:00
7:53 AM,60.1,54.0,80,30.12,10.0,NNW,4.6,-,N/A,,Clear,330,2013-07-01 12:53:00
8:53 AM,66.9,53.1,61,30.13,10.0,North,6.9,-,N/A,,Clear,350,2013-07-01 13:53:00
9:53 AM,72.0,55.0,55,30.13,10.0,North,8.1,-,N/A,,Clear,360,2013-07-01 14:53:00
10:53 AM,75.9,54.0,46,30.12,10.0,NNE,12.7,18.4,N/A,,Clear,30,2013-07-01 15:53:00
11:53 AM,78.1,55.0,45,30.12,10.0,NNE,12.7,20.7,N/A,,Partly Cloudy,30,2013-07-01 16:53:00
12:53 PM,78.1,53.1,42,30.12,10.0,North,16.1,23.0,N/A,,Mostly Cloudy,10,2013-07-01 17:53:00
1:53 PM,80.1,52.0,38,30.11,10.0,NE,12.7,20.7,N/A,,Partly Cloudy,50,2013-07-01 18:53:00
2:53 PM,81.0,50.0,34,30.10,10.0,NE,13.8,-,N/A,,Scattered Clouds,40,2013-07-01 19:53:00
3:53 PM,82.0,48.9,31,30.09,10.0,North,11.5,23.0,N/A,,Clear,10,2013-07-01 20:53:00
4:53 PM,81.0,46.0,29,30.08,10.0,NNE,15.0,-,N/A,,Clear,30,2013-07-01 21:53:00
5:53 PM,81.0,46.0,29,30.08,10.0,NNE,16.1,21.9,N/A,,Clear,30,2013-07-01 22:53:00
6:53 PM,80.1,46.9,31,30.08,10.0,NNE,13.8,-,N/A,,Partly Cloudy,30,2013-07-01 23:53:00
7:53 PM,77.0,46.9,34,30.08,10.0,NNE,10.4,-,N/A,,Partly Cloudy,20,2013-07-02 00:53:00
8:53 PM,72.0,48.0,43,30.09,10.0,North,5.8,-,N/A,,Clear,10,2013-07-02 01:53:00
9:53 PM,66.9,48.9,52,30.09,10.0,WNW,3.5,-,N/A,,Clear,290,2013-07-02 02:53:00
10:53 PM,64.9,51.1,61,30.10,10.0,WNW,4.6,-,N/A,,Clear,290,2013-07-02 03:53:00
11:53 PM,64.0,51.1,63,30.10,10.0,West,4.6,-,N/A,,Clear,280,2013-07-02 04:53:00